Time;durP1;ratioP1;P1;durP2;ratioP2;P2;SDS_P1;SDS_P2;PMS_P1;PMS_P2;Temp;Humidity;BMP_temperature;BMP_pressure;BME280_temperature;BME280_humidity;BME280_pressure;Samples;Min_cycle;Max_cycle;Signal;HPM_P1;HPM_P2
2022/08/06 00:01:53;;;;;;;4.65;1.50;;;17.90;93.40;;;;;;5044916;28;20238;-55
2022/08/06 00:04:21;;;;;;;5.75;1.45;;;17.90;93.50;;;;;;5041326;28;20216;-56
2022/08/06 00:06:46;;;;;;;7.55;2.78;;;17.90;93.50;;;;;;5051522;28;20237;-55
2022/08/06 00:09:12;;;;;;;5.65;2.20;;;17.90;93.50;;;;;;5052982;28;20195;-53
2022/08/06 00:11:40;;;;;;;5.95;1.75;;;17.90;93.60;;;;;;5050509;28;20292;-56
2022/08/06 00:14:06;;;;;;;4.25;1.58;;;17.80;93.60;;;;;;5037093;28;20184;-56
2022/08/06 00:16:32;;;;;;;5.22;1.50;;;17.80;93.70;;;;;;5030000;28;20241;-58
2022/08/06 00:18:59;;;;;;;8.85;1.35;;;17.80;93.70;;;;;;5037477;28;20636;-56
2022/08/06 00:21:24;;;;;;;6.88;1.63;;;17.80;93.70;;;;;;5019326;28;20240;-54
2022/08/06 00:23:50;;;;;;;6.03;1.67;;;17.70;93.80;;;;;;5036165;28;20302;-56
2022/08/06 00:26:16;;;;;;;3.88;1.30;;;17.70;93.90;;;;;;5047835;28;20564;-55
2022/08/06 00:28:42;;;;;;;5.95;1.33;;;17.70;94.00;;;;;;5042660;28;20188;-56
2022/08/06 00:31:07;;;;;;;7.53;1.48;;;17.70;94.00;;;;;;5038462;28;20583;-56
2022/08/06 00:33:34;;;;;;;4.78;2.17;;;17.60;94.00;;;;;;5001354;28;20188;-57
2022/08/06 00:36:00;;;;;;;7.07;2.80;;;17.60;94.40;;;;;;5045040;28;20202;-56
2022/08/06 00:38:26;;;;;;;7.45;2.40;;;17.50;94.10;;;;;;5035854;28;20192;-58
2022/08/06 00:40:53;;;;;;;6.25;1.73;;;17.50;94.10;;;;;;5044020;28;20588;-55
2022/08/06 00:43:19;;;;;;;4.57;1.50;;;17.50;94.10;;;;;;5054815;28;20181;-54
2022/08/06 00:45:45;;;;;;;7.65;1.40;;;17.50;94.20;;;;;;5021972;28;20571;-60
2022/08/06 00:48:11;;;;;;;3.55;1.20;;;17.40;94.30;;;;;;5035182;28;20178;-56
2022/08/06 00:50:37;;;;;;;4.63;1.35;;;17.40;94.40;;;;;;5042129;28;20195;-55
2022/08/06 00:53:03;;;;;;;4.20;1.23;;;17.40;94.40;;;;;;5054531;28;20184;-56
2022/08/06 00:55:30;;;;;;;7.20;1.60;;;17.30;94.40;;;;;;5050139;28;20227;-56
2022/08/06 00:57:56;;;;;;;6.20;1.52;;;17.40;94.40;;;;;;5055016;28;20183;-55
2022/08/06 01:00:21;;;;;;;4.00;1.70;;;17.30;94.40;;;;;;5040261;28;20650;-56
2022/08/06 01:02:47;;;;;;;3.28;1.30;;;17.30;94.40;;;;;;5055026;28;20262;-57
2022/08/06 01:05:14;;;;;;;8.77;1.42;;;17.30;94.40;;;;;;5038484;28;20211;-56
2022/08/06 01:07:40;;;;;;;16.73;9.00;;;17.30;94.40;;;;;;5036784;28;20188;-57
2022/08/06 01:10:06;;;;;;;17.35;8.82;;;17.30;94.40;;;;;;5036783;28;20194;-57
2022/08/06 01:12:32;;;;;;;10.13;3.95;;;17.20;94.50;;;;;;5037066;28;20179;-56
2022/08/06 01:14:58;;;;;;;7.78;3.63;;;17.10;94.60;;;;;;5035901;28;20525;-56
2022/08/06 01:17:34;;;;;;;4.70;1.88;;;17.10;94.80;;;;;;5033835;28;20192;-54
2022/08/06 01:20:19;;;;;;;8.43;2.10;;;17.00;94.90;;;;;;5035798;28;20188;-56
2022/08/06 01:23:23;;;;;;;4.72;1.80;;;17.00;95.10;;;;;;5053428;28;20182;-56
2022/08/06 01:26:14;;;;;;;3.83;1.60;;;17.00;95.20;;;;;;5044959;28;20245;-58
2022/08/06 01:28:49;;;;;;;5.05;2.42;;;16.90;95.30;;;;;;5040184;28;20234;-60
2022/08/06 01:31:25;;;;;;;8.50;2.30;;;17.00;95.40;;;;;;5046111;28;20269;-58
2022/08/06 01:33:57;;;;;;;10.07;2.03;;;16.90;95.40;;;;;;5042208;28;20199;-55
2022/08/06 01:36:36;;;;;;;4.00;1.20;;;16.90;95.50;;;;;;5047129;28;20221;-57
2022/08/06 01:39:02;;;;;;;4.60;1.50;;;16.90;95.60;;;;;;5037231;28;20679;-57
2022/08/06 01:41:43;;;;;;;9.00;1.20;;;16.90;95.80;;;;;;5016514;28;20271;-57
2022/08/06 01:44:16;;;;;;;5.95;1.42;;;16.80;95.90;;;;;;5048003;28;20228;-57
2022/08/06 01:46:48;;;;;;;3.72;1.48;;;16.70;96.10;;;;;;5049746;28;20191;-57
2022/08/06 01:49:19;;;;;;;4.65;1.27;;;16.70;96.20;;;;;;5037231;28;20258;-57
2022/08/06 01:51:46;;;;;;;4.45;1.52;;;16.70;96.40;;;;;;5045465;28;20183;-62
2022/08/06 01:54:14;;;;;;;3.67;1.35;;;16.60;96.40;;;;;;5047539;28;20279;-58
2022/08/06 01:56:41;;;;;;;7.82;1.40;;;16.60;96.60;;;;;;5048934;28;20182;-57
2022/08/06 01:59:09;;;;;;;3.63;1.20;;;16.70;96.80;;;;;;5035489;28;20188;-57
2022/08/06 02:01:36;;;;;;;3.58;1.13;;;16.60;96.90;;;;;;5046830;28;20236;-60
2022/08/06 02:04:03;;;;;;;5.05;1.30;;;16.60;97.00;;;;;;5031047;28;20222;-59
2022/08/06 02:06:37;;;;;;;6.15;1.45;;;16.60;97.10;;;;;;5050313;28;20699;-57
2022/08/06 02:09:11;;;;;;;4.22;1.30;;;16.60;97.20;;;;;;5053776;28;20289;-57
2022/08/06 02:11:39;;;;;;;5.75;1.30;;;16.60;97.20;;;;;;5051041;28;20276;-57
2022/08/06 02:14:07;;;;;;;2.83;1.10;;;16.60;97.20;;;;;;5053183;28;20188;-57
2022/08/06 02:16:41;;;;;;;6.93;1.58;;;16.50;97.20;;;;;;5047342;28;20627;-56
2022/08/06 02:19:11;;;;;;;6.75;2.40;;;16.50;97.40;;;;;;5050049;28;20179;-58
2022/08/06 02:21:40;;;;;;;3.63;2.30;;;16.40;97.50;;;;;;5048519;28;20183;-57
2022/08/06 02:24:08;;;;;;;5.88;1.30;;;16.40;97.70;;;;;;5052948;28;20199;-58
2022/08/06 02:26:36;;;;;;;7.07;4.93;;;16.40;97.80;;;;;;5036954;28;20184;-59
2022/08/06 02:29:07;;;;;;;11.57;4.55;;;16.30;97.90;;;;;;5032834;28;20179;-58
2022/08/06 02:31:34;;;;;;;8.40;5.25;;;16.30;98.00;;;;;;5045130;28;20194;-59
2022/08/06 02:34:00;;;;;;;4.80;1.20;;;16.30;98.00;;;;;;5034850;28;20179;-57
2022/08/06 02:36:48;;;;;;;6.57;1.30;;;16.30;98.10;;;;;;5020885;28;20191;-58
2022/08/06 02:39:23;;;;;;;7.63;5.05;;;16.30;98.10;;;;;;5033419;28;20180;-57
2022/08/06 02:42:10;;;;;;;4.63;1.48;;;16.30;98.10;;;;;;5049572;28;20209;-57
2022/08/06 02:44:42;;;;;;;4.85;2.65;;;16.20;98.20;;;;;;5051108;28;20298;-58
2022/08/06 02:47:13;;;;;;;8.95;2.53;;;16.20;98.30;;;;;;5021736;28;20188;-57
2022/08/06 02:49:44;;;;;;;5.28;1.65;;;16.20;98.40;;;;;;5032310;28;20183;-57
2022/08/06 02:52:20;;;;;;;7.43;5.85;;;16.20;98.50;;;;;;5047479;28;20253;-57
2022/08/06 02:54:55;;;;;;;6.15;2.05;;;16.20;98.60;;;;;;5032737;28;20210;-55
2022/08/06 02:57:25;;;;;;;4.03;1.25;;;16.10;98.70;;;;;;5046648;28;20228;-56
2022/08/06 02:59:59;;;;;;;6.80;4.82;;;16.10;98.80;;;;;;5050210;28;20186;-56
2022/08/06 03:02:28;;;;;;;8.02;1.58;;;16.10;98.80;;;;;;5033396;28;20583;-55
2022/08/06 03:04:57;;;;;;;8.85;6.38;;;16.10;98.80;;;;;;5033613;28;20215;-54
2022/08/06 03:07:28;;;;;;;3.20;1.40;;;16.10;98.90;;;;;;5031634;28;20176;-56
2022/08/06 03:09:56;;;;;;;4.78;1.23;;;16.10;98.90;;;;;;5033166;28;20212;-56
2022/08/06 03:12:21;;;;;;;7.93;2.42;;;16.10;99.00;;;;;;5052264;28;20312;-58
2022/08/06 03:14:48;;;;;;;5.30;1.48;;;16.00;99.20;;;;;;5047068;28;20543;-54
2022/08/06 03:17:16;;;;;;;4.95;1.58;;;16.00;99.40;;;;;;5051475;28;20183;-56
2022/08/06 03:19:44;;;;;;;4.38;1.17;;;16.00;99.60;;;;;;5033359;28;20260;-57
2022/08/06 03:22:11;;;;;;;3.92;1.23;;;16.00;99.60;;;;;;5052219;28;20655;-55
2022/08/06 03:24:39;;;;;;;5.35;1.60;;;16.00;99.70;;;;;;5036154;28;20302;-56
2022/08/06 03:27:06;;;;;;;4.35;1.48;;;15.90;99.90;;;;;;5049620;28;20854;-55
2022/08/06 03:29:34;;;;;;;5.20;4.05;;;15.90;99.90;;;;;;5032523;28;20730;-55
2022/08/06 03:32:00;;;;;;;7.10;5.05;;;15.90;99.90;;;;;;5049366;28;20175;-57
2022/08/06 03:34:29;;;;;;;3.53;2.08;;;15.90;99.90;;;;;;5052742;28;20199;-56
2022/08/06 03:37:00;;;;;;;6.50;4.18;;;15.90;99.90;;;;;;5032974;28;20632;-56
2022/08/06 03:39:27;;;;;;;9.25;3.15;;;16.00;99.90;;;;;;5032881;28;20191;-55
2022/08/06 03:41:53;;;;;;;2.90;1.40;;;16.00;99.90;;;;;;5033320;28;20196;-61
2022/08/06 03:44:19;;;;;;;6.45;1.45;;;15.90;99.90;;;;;;5030454;28;20227;-55
2022/08/06 03:46:58;;;;;;;5.65;1.42;;;15.90;99.90;;;;;;5050666;28;20179;-61
2022/08/06 03:49:29;;;;;;;7.35;1.60;;;16.00;99.90;;;;;;5040732;28;20179;-56
2022/08/06 03:51:58;;;;;;;2.25;1.33;;;15.90;99.90;;;;;;5050295;28;20273;-55
2022/08/06 03:54:28;;;;;;;4.45;1.52;;;15.90;99.90;;;;;;5026180;28;20541;-57
2022/08/06 03:57:05;;;;;;;5.72;1.45;;;15.90;99.90;;;;;;5034930;28;20184;-58
2022/08/06 03:59:33;;;;;;;6.45;1.63;;;15.90;99.90;;;;;;5047931;28;20178;-57
2022/08/06 04:02:02;;;;;;;5.63;1.55;;;15.90;99.90;;;;;;5036414;28;20233;-56
2022/08/06 04:04:31;;;;;;;4.18;1.52;;;15.90;99.90;;;;;;5019850;28;20273;-55
2022/08/06 04:06:59;;;;;;;4.72;1.77;;;15.90;99.90;;;;;;5053611;28;20206;-56
2022/08/06 04:09:25;;;;;;;6.47;1.70;;;15.90;99.90;;;;;;5055470;28;20191;-56
2022/08/06 04:11:52;;;;;;;3.72;1.45;;;15.90;99.90;;;;;;5053538;28;20223;-56
2022/08/06 04:14:19;;;;;;;4.20;1.60;;;15.80;99.90;;;;;;5020944;28;20195;-57
2022/08/06 04:16:45;;;;;;;5.53;1.48;;;15.80;99.90;;;;;;5036808;28;20732;-56
2022/08/06 04:19:14;;;;;;;3.58;1.38;;;15.80;99.90;;;;;;5052650;28;20194;-56
2022/08/06 04:21:40;;;;;;;5.53;1.40;;;15.70;99.90;;;;;;5037578;28;20206;-57
2022/08/06 04:24:06;;;;;;;3.72;1.50;;;15.70;99.90;;;;;;5015289;28;20660;-58
2022/08/06 04:26:33;;;;;;;3.33;1.58;;;15.70;99.90;;;;;;5034980;28;20233;-57
2022/08/06 04:29:00;;;;;;;2.83;1.60;;;15.70;99.90;;;;;;5035200;28;20277;-56
2022/08/06 04:31:29;;;;;;;4.65;1.67;;;15.70;99.90;;;;;;5052824;28;20257;-55
2022/08/06 04:33:56;;;;;;;7.93;1.85;;;15.70;99.90;;;;;;5054707;28;20175;-55
2022/08/06 04:36:22;;;;;;;4.22;1.52;;;15.70;99.90;;;;;;5048872;28;20183;-55
2022/08/06 04:38:48;;;;;;;5.45;1.70;;;15.70;99.90;;;;;;5050771;28;20784;-56
2022/08/06 04:41:15;;;;;;;8.60;2.08;;;15.70;99.90;;;;;;5049893;28;20187;-57
2022/08/06 04:43:41;;;;;;;9.35;2.10;;;15.70;99.90;;;;;;5051025;28;20684;-56
2022/08/06 04:46:08;;;;;;;6.28;2.10;;;15.60;99.90;;;;;;5047746;28;20258;-56
2022/08/06 04:48:34;;;;;;;10.98;2.30;;;15.60;99.90;;;;;;5021787;28;20647;-56
2022/08/06 04:51:05;;;;;;;7.05;2.60;;;15.50;99.90;;;;;;5052301;28;20549;-56
2022/08/06 04:53:39;;;;;;;10.80;2.40;;;15.60;99.90;;;;;;5036881;28;20179;-55
2022/08/06 04:56:09;;;;;;;4.32;2.00;;;15.60;99.90;;;;;;5046855;28;20601;-55
2022/08/06 04:58:35;;;;;;;4.65;1.90;;;15.60;99.90;;;;;;5032874;28;20180;-57
2022/08/06 05:01:02;;;;;;;3.13;1.85;;;15.60;99.90;;;;;;5043474;28;20187;-56
2022/08/06 05:03:29;;;;;;;8.27;2.80;;;15.60;99.90;;;;;;5054611;28;20270;-56
2022/08/06 05:06:08;;;;;;;6.65;2.83;;;15.60;99.90;;;;;;5032848;28;20182;-56
2022/08/06 05:08:39;;;;;;;12.15;3.08;;;15.60;99.90;;;;;;5024677;28;20519;-53
2022/08/06 05:11:18;;;;;;;5.00;2.13;;;15.60;99.90;;;;;;5031784;28;20668;-56
2022/08/06 05:13:46;;;;;;;5.80;2.30;;;15.70;99.90;;;;;;5049682;28;20175;-56
2022/08/06 05:16:16;;;;;;;3.38;1.70;;;15.70;99.90;;;;;;5049423;28;20179;-55
2022/08/06 05:18:50;;;;;;;4.18;1.60;;;15.80;99.90;;;;;;5056256;28;20651;-57
2022/08/06 05:21:25;;;;;;;6.07;1.90;;;15.80;99.90;;;;;;5046927;28;20194;-56
2022/08/06 05:23:53;;;;;;;4.15;2.15;;;15.90;99.90;;;;;;5049725;28;20211;-58
2022/08/06 05:26:20;;;;;;;4.75;2.00;;;15.90;99.90;;;;;;5046593;28;20607;-54
2022/08/06 05:28:46;;;;;;;3.42;1.65;;;16.00;99.90;;;;;;5049178;28;20207;-54
2022/08/06 05:31:12;;;;;;;4.05;1.60;;;16.00;99.90;;;;;;5031196;28;20211;-53
2022/08/06 05:33:39;;;;;;;5.43;1.60;;;16.10;99.90;;;;;;5049648;28;20639;-54
2022/08/06 05:36:07;;;;;;;3.05;1.50;;;16.10;99.90;;;;;;5049648;28;20180;-55
2022/08/06 05:38:35;;;;;;;3.63;1.67;;;16.20;99.90;;;;;;5040171;28;20188;-56
2022/08/06 05:41:02;;;;;;;4.10;1.98;;;16.20;99.90;;;;;;5041492;28;20186;-58
2022/08/06 05:43:28;;;;;;;6.43;1.60;;;16.20;99.90;;;;;;5024588;28;20203;-53
2022/08/06 05:46:01;;;;;;;12.77;1.75;;;16.30;99.90;;;;;;5034988;28;20668;-56
2022/08/06 05:48:31;;;;;;;10.93;2.30;;;16.30;99.90;;;;;;5032882;28;20180;-55
2022/08/06 05:51:02;;;;;;;6.68;2.15;;;16.40;99.90;;;;;;5043278;28;20273;-56
2022/08/06 05:53:43;;;;;;;6.45;2.20;;;16.40;99.90;;;;;;5049496;28;20184;-55
2022/08/06 05:56:20;;;;;;;6.65;2.15;;;16.50;99.90;;;;;;5039688;28;20172;-55
2022/08/06 05:58:59;;;;;;;5.93;1.63;;;16.50;99.90;;;;;;5033287;28;20202;-56
2022/08/06 06:01:26;;;;;;;5.40;2.05;;;16.60;99.90;;;;;;5046103;28;20191;-56
2022/08/06 06:03:54;;;;;;;4.90;1.70;;;16.60;99.90;;;;;;5026558;28;20208;-58
2022/08/06 06:06:21;;;;;;;4.07;1.60;;;16.70;99.90;;;;;;5029504;28;20186;-57
2022/08/06 06:08:48;;;;;;;3.78;1.70;;;16.70;99.90;;;;;;5033049;28;20271;-57
2022/08/06 06:11:14;;;;;;;4.93;1.67;;;16.80;99.90;;;;;;5043001;28;20259;-56
2022/08/06 06:13:42;;;;;;;5.18;1.52;;;16.80;99.90;;;;;;5033132;28;20182;-56
2022/08/06 06:16:14;;;;;;;7.55;2.15;;;16.90;99.90;;;;;;5044170;28;20233;-53
2022/08/06 06:19:00;;;;;;;6.78;1.88;;;16.80;99.90;;;;;;5053017;28;20183;-55
2022/08/06 06:21:31;;;;;;;4.75;1.95;;;16.90;99.90;;;;;;5049653;28;20713;-56
2022/08/06 06:24:28;;;;;;;6.93;1.52;;;16.90;99.90;;;;;;5052728;28;20574;-56
2022/08/06 06:27:17;;;;;;;5.38;1.70;;;17.00;99.90;;;;;;5033184;28;20194;-55
2022/08/06 06:30:02;;;;;;;4.30;1.20;;;17.10;99.90;;;;;;5041429;28;20262;-55
2022/08/06 06:32:56;;;;;;;8.25;1.90;;;17.10;99.60;;;;;;5032861;28;20187;-54
2022/08/06 06:35:46;;;;;;;6.68;2.22;;;17.20;99.40;;;;;;5017321;28;20249;-55
2022/08/06 06:38:17;;;;;;;4.85;1.48;;;17.30;99.10;;;;;;5031650;28;20186;-55
2022/08/06 06:40:52;;;;;;;3.45;1.60;;;17.30;98.70;;;;;;5038122;28;20287;-55
2022/08/06 06:43:45;;;;;;;3.13;1.45;;;17.40;98.30;;;;;;5031771;28;20646;-56
2022/08/06 06:46:19;;;;;;;5.78;1.20;;;17.40;98.00;;;;;;5032307;28;20188;-56
2022/08/06 06:48:54;;;;;;;2.50;1.00;;;17.50;97.80;;;;;;5032601;28;20211;-55
2022/08/06 06:51:27;;;;;;;2.35;1.08;;;17.50;97.60;;;;;;5033652;28;20270;-58
2022/08/06 06:53:55;;;;;;;2.30;1.15;;;17.50;97.50;;;;;;5031826;28;20206;-58
2022/08/06 06:56:27;;;;;;;4.60;1.10;;;17.50;97.30;;;;;;5045708;28;20183;-59
2022/08/06 06:59:02;;;;;;;3.58;1.10;;;17.60;97.30;;;;;;5043173;28;20179;-58
2022/08/06 07:01:31;;;;;;;4.85;0.90;;;17.60;97.20;;;;;;5041956;28;20186;-59
2022/08/06 07:04:02;;;;;;;3.95;1.10;;;17.60;97.00;;;;;;5018241;28;20307;-55
2022/08/06 07:06:30;;;;;;;2.25;0.80;;;17.70;97.00;;;;;;5045915;28;20218;-57
2022/08/06 07:08:57;;;;;;;5.20;0.90;;;17.70;96.80;;;;;;5043860;28;20194;-56
2022/08/06 07:11:25;;;;;;;3.50;0.95;;;17.70;96.60;;;;;;5032112;28;20281;-59
2022/08/06 07:13:54;;;;;;;3.50;1.00;;;17.70;96.40;;;;;;5032798;28;20636;-58
2022/08/06 07:16:22;;;;;;;4.28;1.00;;;17.70;96.30;;;;;;5032684;28;20192;-58
2022/08/06 07:18:50;;;;;;;1.73;1.00;;;17.60;96.20;;;;;;5032635;28;20570;-58
2022/08/06 07:21:17;;;;;;;5.45;0.93;;;17.70;96.30;;;;;;5033343;28;20233;-56
2022/08/06 07:23:51;;;;;;;2.65;1.20;;;17.60;96.20;;;;;;5037730;28;20695;-58
2022/08/06 07:26:19;;;;;;;2.80;1.13;;;17.70;96.30;;;;;;5035646;28;20180;-55
2022/08/06 07:28:46;;;;;;;5.78;0.93;;;17.70;96.30;;;;;;5036304;28;20255;-58
2022/08/06 07:31:13;;;;;;;3.97;1.15;;;17.80;96.30;;;;;;5018582;28;20188;-56
2022/08/06 07:33:41;;;;;;;3.72;1.20;;;17.80;96.00;;;;;;5002251;28;20234;-57
2022/08/06 07:36:08;;;;;;;4.20;1.00;;;17.90;95.30;;;;;;5046331;28;20194;-58
2022/08/06 07:38:38;;;;;;;2.33;0.73;;;17.90;94.80;;;;;;5030844;28;20209;-60
2022/08/06 07:41:05;;;;;;;2.10;0.80;;;18.10;94.60;;;;;;5045950;28;20188;-58
2022/08/06 07:43:46;;;;;;;2.20;0.88;;;18.10;94.20;;;;;;5038428;28;20172;-57
2022/08/06 07:46:17;;;;;;;3.60;1.20;;;18.20;93.90;;;;;;5047070;28;20257;-57
2022/08/06 07:48:54;;;;;;;1.50;0.90;;;18.30;93.90;;;;;;5038410;28;20205;-57
2022/08/06 07:51:27;;;;;;;3.40;1.13;;;18.30;93.60;;;;;;5048250;28;20631;-54
2022/08/06 07:53:54;;;;;;;2.72;1.15;;;18.40;93.20;;;;;;5053722;28;20575;-55
2022/08/06 07:56:21;;;;;;;6.20;5.60;;;18.40;93.00;;;;;;5053273;28;20237;-54
2022/08/06 07:58:49;;;;;;;6.45;5.68;;;18.50;92.70;;;;;;5055714;28;20179;-58
2022/08/06 08:01:16;;;;;;;6.82;6.22;;;18.60;92.50;;;;;;5051934;28;20645;-57
2022/08/06 08:06:28;;;;;;;7.40;6.70;;;18.60;92.10;;;;;;5034761;28;20192;-60
2022/08/06 08:09:04;;;;;;;7.78;6.38;;;18.60;92.20;;;;;;5033737;28;20192;-56
2022/08/06 08:11:31;;;;;;;7.43;6.75;;;18.60;92.30;;;;;;5034802;28;20234;-58
2022/08/06 08:13:58;;;;;;;8.55;6.78;;;18.60;92.00;;;;;;5034779;28;20211;-59
2022/08/06 08:16:26;;;;;;;9.18;7.82;;;18.60;91.80;;;;;;5034823;28;20203;-57
2022/08/06 08:18:52;;;;;;;6.13;5.18;;;18.60;91.70;;;;;;5050496;28;20226;-59
2022/08/06 08:21:19;;;;;;;3.78;0.88;;;18.60;91.80;;;;;;5032613;28;20631;-59
2022/08/06 08:23:47;;;;;;;3.95;0.80;;;18.60;91.70;;;;;;5035273;28;20239;-60
2022/08/06 08:26:13;;;;;;;1.88;0.70;;;18.60;91.70;;;;;;5041380;28;20187;-58
2022/08/06 08:28:39;;;;;;;0.82;0.70;;;18.70;91.70;;;;;;5048954;28;20204;-58
2022/08/06 08:31:06;;;;;;;1.98;0.90;;;18.80;91.60;;;;;;5044733;28;20267;-58
2022/08/06 08:33:32;;;;;;;3.05;0.90;;;18.80;90.90;;;;;;5036025;28;20183;-58
2022/08/06 08:35:58;;;;;;;1.92;0.95;;;18.90;90.40;;;;;;5051092;28;20640;-59
2022/08/06 08:38:24;;;;;;;2.33;0.80;;;19.00;90.10;;;;;;5048626;28;20180;-58
2022/08/06 08:40:51;;;;;;;1.60;0.70;;;19.00;90.00;;;;;;5034888;28;20179;-59
2022/08/06 08:43:35;;;;;;;2.25;0.73;;;19.00;90.20;;;;;;5034636;28;20238;-58
2022/08/06 08:46:02;;;;;;;3.38;0.70;;;19.10;89.80;;;;;;5036911;28;20563;-59
2022/08/06 08:48:29;;;;;;;1.88;0.75;;;19.20;87.70;;;;;;5041095;28;20183;-58
2022/08/06 08:50:59;;;;;;;4.55;0.80;;;19.30;86.30;;;;;;5038237;28;20269;-62
2022/08/06 08:53:48;;;;;;;6.53;0.70;;;19.40;86.30;;;;;;5049376;28;20617;-58
2022/08/06 08:56:14;;;;;;;3.42;0.70;;;19.40;86.30;;;;;;5040695;28;20180;-58
2022/08/06 08:58:41;;;;;;;1.50;0.70;;;19.50;85.00;;;;;;5016967;28;20172;-58
2022/08/06 09:01:08;;;;;;;2.85;0.70;;;19.50;84.40;;;;;;5044644;28;20651;-57
2022/08/06 09:03:39;;;;;;;2.17;0.88;;;19.50;84.20;;;;;;5052652;28;20183;-57
2022/08/06 09:06:12;;;;;;;1.88;0.75;;;19.50;83.80;;;;;;5026734;28;20183;-56
2022/08/06 09:08:40;;;;;;;1.38;0.70;;;19.50;81.50;;;;;;5045728;28;20695;-61
2022/08/06 09:11:06;;;;;;;1.42;0.77;;;19.50;80.40;;;;;;5022595;28;20284;-62
2022/08/06 09:13:32;;;;;;;6.53;0.82;;;19.60;80.70;;;;;;5050776;28;20683;-57
2022/08/06 09:15:58;;;;;;;1.90;0.70;;;19.70;81.50;;;;;;5033432;28;20191;-61
2022/08/06 09:18:26;;;;;;;1.15;0.63;;;19.70;82.40;;;;;;5032214;28;20188;-58
2022/08/06 09:20:56;;;;;;;1.48;0.70;;;19.80;82.50;;;;;;5041655;28;20179;-58
2022/08/06 09:23:22;;;;;;;3.17;0.80;;;19.80;83.20;;;;;;5031625;28;20192;-59
2022/08/06 09:25:50;;;;;;;2.17;0.70;;;19.80;84.00;;;;;;5016575;28;20232;-59
2022/08/06 09:28:38;;;;;;;1.92;0.73;;;19.80;82.70;;;;;;5033231;28;20274;-58
2022/08/06 09:31:26;;;;;;;1.73;0.80;;;19.80;81.60;;;;;;5031922;28;20211;-60
2022/08/06 09:34:03;;;;;;;1.10;0.70;;;19.80;81.50;;;;;;5028481;28;20654;-55
2022/08/06 09:36:41;;;;;;;1.40;0.70;;;19.90;82.50;;;;;;5047727;28;20187;-58
2022/08/06 09:39:08;;;;;;;2.30;0.77;;;20.00;83.30;;;;;;5049788;28;20681;-55
2022/08/06 09:41:34;;;;;;;2.30;1.00;;;20.00;83.00;;;;;;5051463;28;20190;-58
2022/08/06 09:44:10;;;;;;;4.45;0.80;;;20.10;82.10;;;;;;5022135;28;20229;-59
2022/08/06 09:46:44;;;;;;;2.88;0.70;;;20.20;81.30;;;;;;5033589;28;20298;-59
2022/08/06 09:49:13;;;;;;;1.98;0.93;;;20.20;81.60;;;;;;5033302;28;20179;-59
2022/08/06 09:51:40;;;;;;;2.22;0.88;;;20.30;80.70;;;;;;5049311;28;20187;-59
2022/08/06 09:54:09;;;;;;;4.10;0.80;;;20.40;81.00;;;;;;5048132;28;20207;-59
2022/08/06 09:56:36;;;;;;;3.40;0.82;;;20.50;80.70;;;;;;5050972;28;20215;-60
2022/08/06 09:59:10;;;;;;;2.50;0.65;;;20.50;78.50;;;;;;5037019;28;20638;-59
2022/08/06 10:01:44;;;;;;;3.35;1.00;;;20.60;77.20;;;;;;5040691;28;20188;-59
2022/08/06 10:04:26;;;;;;;1.63;0.90;;;20.70;77.90;;;;;;5042312;28;20242;-56
2022/08/06 10:06:58;;;;;;;5.97;0.93;;;20.70;77.70;;;;;;5050399;28;20241;-53
2022/08/06 10:09:25;;;;;;;2.42;1.05;;;20.70;78.20;;;;;;5052413;28;20207;-52
2022/08/06 10:11:51;;;;;;;5.90;0.90;;;20.70;78.30;;;;;;5051465;28;20223;-52
2022/08/06 10:14:24;;;;;;;2.65;0.95;;;20.80;78.30;;;;;;5033585;28;20239;-53
2022/08/06 10:17:05;;;;;;;2.20;0.80;;;20.70;77.90;;;;;;5048828;28;20197;-54
2022/08/06 10:19:30;;;;;;;2.58;0.80;;;20.70;77.90;;;;;;5052883;28;20607;-58
2022/08/06 10:22:04;;;;;;;1.60;0.70;;;20.70;78.50;;;;;;5031537;28;20191;-52
2022/08/06 10:24:33;;;;;;;2.33;0.70;;;20.80;78.40;;;;;;5020112;28;20266;-52
2022/08/06 10:26:59;;;;;;;2.20;0.93;;;20.70;78.20;;;;;;5030659;28;20192;-49
2022/08/06 10:29:26;;;;;;;2.03;0.70;;;20.70;77.50;;;;;;5014176;28;20622;-54
2022/08/06 10:31:53;;;;;;;0.80;0.60;;;20.70;76.40;;;;;;5025105;28;20250;-56
2022/08/06 10:34:27;;;;;;;5.00;0.88;;;20.80;76.30;;;;;;5052601;28;20710;-54
2022/08/06 10:37:02;;;;;;;1.90;0.85;;;20.80;77.60;;;;;;5016055;28;20206;-59
2022/08/06 10:39:34;;;;;;;0.95;0.70;;;20.90;77.90;;;;;;5041741;28;20180;-55
2022/08/06 10:42:01;;;;;;;0.77;0.70;;;21.00;78.40;;;;;;5031735;28;20184;-56
2022/08/06 10:44:28;;;;;;;1.42;0.63;;;21.00;78.20;;;;;;5032680;28;20206;-55
2022/08/06 10:46:54;;;;;;;1.33;0.80;;;21.10;77.30;;;;;;5033734;28;20194;-57
2022/08/06 10:49:22;;;;;;;2.08;0.80;;;21.10;76.30;;;;;;5051055;28;20627;-55
2022/08/06 10:51:49;;;;;;;2.67;0.60;;;21.10;75.50;;;;;;5031328;28;20234;-62
2022/08/06 10:54:16;;;;;;;1.83;0.77;;;21.10;75.70;;;;;;5031384;28;20275;-58
2022/08/06 10:56:42;;;;;;;1.63;0.70;;;21.10;75.70;;;;;;5051130;28;20256;-59
2022/08/06 10:59:12;;;;;;;0.70;0.60;;;21.10;74.60;;;;;;5047339;28;20183;-55
2022/08/06 11:01:58;;;;;;;0.93;0.68;;;21.20;73.30;;;;;;5053536;28;20179;-56
2022/08/06 11:05:13;;;;;;;3.15;0.80;;;21.20;71.90;;;;;;5056483;28;20235;-53
2022/08/06 11:07:56;;;;;;;1.48;0.75;;;21.30;71.30;;;;;;4975163;28;20208;-58
2022/08/06 11:10:37;;;;;;;2.42;0.80;;;21.40;70.80;;;;;;5035258;28;20249;-58
2022/08/06 11:13:21;;;;;;;1.85;0.60;;;21.50;69.70;;;;;;5041375;28;20225;-59
2022/08/06 11:15:47;;;;;;;2.00;0.60;;;21.60;68.50;;;;;;5054415;28;20218;-54
2022/08/06 11:18:13;;;;;;;1.52;0.80;;;21.60;68.50;;;;;;5053111;28;20175;-58
2022/08/06 11:20:42;;;;;;;1.42;0.50;;;21.60;68.40;;;;;;5035977;28;20199;-59
2022/08/06 11:23:11;;;;;;;3.47;0.60;;;21.70;67.70;;;;;;5002127;28;20183;-59
2022/08/06 11:25:43;;;;;;;3.58;0.90;;;21.80;66.80;;;;;;5042366;28;20766;-58
2022/08/06 11:28:12;;;;;;;0.98;0.50;;;21.90;65.30;;;;;;5056435;28;20175;-63
2022/08/06 11:30:50;;;;;;;3.08;0.70;;;22.10;65.30;;;;;;5047940;28;20268;-57
2022/08/06 11:33:21;;;;;;;1.95;0.70;;;22.30;64.70;;;;;;5076485;28;20178;-60
2022/08/06 11:35:51;;;;;;;1.67;1.17;;;22.40;63.40;;;;;;5059932;28;20203;-60
2022/08/06 11:38:42;;;;;;;1.52;0.80;;;22.50;62.60;;;;;;5045778;28;20742;-59
2022/08/06 11:41:10;;;;;;;6.05;4.15;;;22.60;62.50;;;;;;5053919;28;20184;-57
2022/08/06 11:43:48;;;;;;;3.03;0.80;;;22.70;62.50;;;;;;5035171;28;20184;-62
2022/08/06 11:46:35;;;;;;;2.08;0.70;;;22.80;62.60;;;;;;5050334;28;20737;-59
2022/08/06 11:49:04;;;;;;;2.05;0.60;;;22.90;61.90;;;;;;5055807;28;20175;-57
2022/08/06 11:51:43;;;;;;;2.00;0.63;;;23.10;61.00;;;;;;5051574;28;20192;-58
2022/08/06 11:54:30;;;;;;;0.82;0.60;;;23.20;60.20;;;;;;5065178;28;20659;-58
2022/08/06 11:57:09;;;;;;;2.63;0.65;;;23.30;60.00;;;;;;5052073;28;20195;-58
2022/08/06 11:59:44;;;;;;;1.05;0.70;;;23.40;59.80;;;;;;5034990;28;20164;-60
2022/08/06 12:02:33;;;;;;;1.80;0.70;;;23.40;60.10;;;;;;5053096;28;20507;-57
2022/08/06 12:04:59;;;;;;;1.25;0.60;;;23.50;59.80;;;;;;5052692;28;20722;-56
2022/08/06 12:07:34;;;;;;;4.93;4.53;;;23.60;59.70;;;;;;5055219;28;20206;-55
2022/08/06 12:10:05;;;;;;;5.70;4.95;;;23.60;58.90;;;;;;5052925;28;20179;-55
2022/08/06 12:12:38;;;;;;;2.30;0.60;;;23.70;58.40;;;;;;5055726;28;20223;-61
2022/08/06 12:15:26;;;;;;;1.52;0.60;;;23.70;58.10;;;;;;5046142;28;20187;-56
2022/08/06 12:17:58;;;;;;;2.85;0.70;;;23.70;57.70;;;;;;5055477;28;20190;-56
2022/08/06 12:20:32;;;;;;;0.60;0.55;;;23.70;57.90;;;;;;5053047;28;20184;-53
2022/08/06 12:23:04;;;;;;;1.15;0.70;;;23.80;57.60;;;;;;5048104;28;20188;-58
2022/08/06 12:25:39;;;;;;;3.30;0.80;;;23.80;57.60;;;;;;5018222;28;20204;-51
2022/08/06 12:28:07;;;;;;;1.08;0.63;;;23.80;57.90;;;;;;5049540;28;20627;-53
2022/08/06 12:30:41;;;;;;;2.08;0.70;;;23.90;58.40;;;;;;5035142;28;20262;-54
2022/08/06 12:33:08;;;;;;;2.97;0.60;;;24.00;58.30;;;;;;5034375;28;20179;-54
2022/08/06 12:35:35;;;;;;;1.95;0.73;;;24.00;58.40;;;;;;5008820;28;20183;-54
2022/08/06 12:38:00;;;;;;;2.50;0.65;;;24.20;58.10;;;;;;5052511;28;20242;-56
2022/08/06 12:40:26;;;;;;;0.80;0.57;;;24.30;57.90;;;;;;5017015;28;20192;-54
2022/08/06 12:42:53;;;;;;;3.15;0.70;;;24.40;57.00;;;;;;5033921;28;20184;-54
2022/08/06 12:45:23;;;;;;;2.97;0.70;;;24.30;56.10;;;;;;5037703;28;20260;-56
2022/08/06 12:48:03;;;;;;;2.67;0.70;;;24.20;55.90;;;;;;5054750;28;20176;-52
2022/08/06 12:50:32;;;;;;;2.45;0.70;;;24.10;56.50;;;;;;5045351;28;20183;-56
2022/08/06 12:53:06;;;;;;;2.70;0.80;;;24.10;56.50;;;;;;5018910;28;20176;-58
2022/08/06 12:55:42;;;;;;;1.98;0.68;;;24.10;56.80;;;;;;5026134;28;20325;-55
2022/08/06 12:58:09;;;;;;;1.83;0.70;;;24.00;56.90;;;;;;5070055;28;20257;-61
2022/08/06 13:00:36;;;;;;;2.30;0.70;;;24.00;56.90;;;;;;5042199;28;20187;-53
2022/08/06 13:03:05;;;;;;;2.55;0.80;;;24.00;56.90;;;;;;5054319;28;20176;-57
2022/08/06 13:05:31;;;;;;;2.00;0.70;;;24.10;56.80;;;;;;5048392;28;20300;-56
2022/08/06 13:07:58;;;;;;;1.63;0.60;;;24.20;57.10;;;;;;5035124;28;20195;-54